sensor_id;sensor_type;location;lat;lon;timestamp;P1;durP1;ratioP1;P2;durP2;ratioP2
70270;SDS011;57680;54.292;18.598;2022-10-26T00:00:25;16.98;;;6.57;;
70270;SDS011;57680;54.292;18.598;2022-10-26T00:02:54;18.60;;;6.40;;
70270;SDS011;57680;54.292;18.598;2022-10-26T00:05:21;16.20;;;6.70;;
70270;SDS011;57680;54.292;18.598;2022-10-26T00:07:47;17.02;;;6.70;;
70270;SDS011;57680;54.292;18.598;2022-10-26T00:10:13;16.13;;;6.43;;
70270;SDS011;57680;54.292;18.598;2022-10-26T00:12:39;15.63;;;6.53;;
70270;SDS011;57680;54.292;18.598;2022-10-26T00:15:04;13.57;;;6.57;;
70270;SDS011;57680;54.292;18.598;2022-10-26T00:17:31;15.90;;;6.45;;
70270;SDS011;57680;54.292;18.598;2022-10-26T00:19:56;15.60;;;6.37;;
70270;SDS011;57680;54.292;18.598;2022-10-26T00:22:22;16.33;;;6.90;;
70270;SDS011;57680;54.292;18.598;2022-10-26T00:24:48;18.27;;;7.07;;
70270;SDS011;57680;54.292;18.598;2022-10-26T00:27:13;17.87;;;6.83;;
70270;SDS011;57680;54.292;18.598;2022-10-26T00:29:39;16.17;;;7.38;;
70270;SDS011;57680;54.292;18.598;2022-10-26T00:32:05;18.40;;;6.87;;
70270;SDS011;57680;54.292;18.598;2022-10-26T00:34:31;18.33;;;7.40;;
70270;SDS011;57680;54.292;18.598;2022-10-26T00:36:56;16.45;;;6.60;;
70270;SDS011;57680;54.292;18.598;2022-10-26T00:39:22;20.30;;;7.67;;
70270;SDS011;57680;54.292;18.598;2022-10-26T00:41:48;17.60;;;7.00;;
70270;SDS011;57680;54.292;18.598;2022-10-26T00:47:17;14.88;;;6.88;;
70270;SDS011;57680;54.292;18.598;2022-10-26T00:49:50;19.30;;;6.57;;
70270;SDS011;57680;54.292;18.598;2022-10-26T00:52:17;13.87;;;6.33;;
70270;SDS011;57680;54.292;18.598;2022-10-26T00:54:44;13.60;;;7.28;;
70270;SDS011;57680;54.292;18.598;2022-10-26T00:57:10;15.20;;;7.03;;
70270;SDS011;57680;54.292;18.598;2022-10-26T00:59:38;18.27;;;7.38;;
70270;SDS011;57680;54.292;18.598;2022-10-26T01:02:04;16.73;;;6.57;;
70270;SDS011;57680;54.292;18.598;2022-10-26T01:04:30;14.82;;;6.65;;
70270;SDS011;57680;54.292;18.598;2022-10-26T01:06:58;14.18;;;6.60;;
70270;SDS011;57680;54.292;18.598;2022-10-26T01:09:25;15.70;;;6.15;;
70270;SDS011;57680;54.292;18.598;2022-10-26T01:11:51;16.63;;;6.53;;
70270;SDS011;57680;54.292;18.598;2022-10-26T01:14:16;14.05;;;6.50;;
70270;SDS011;57680;54.292;18.598;2022-10-26T01:21:53;16.67;;;6.57;;
70270;SDS011;57680;54.292;18.598;2022-10-26T01:24:34;15.05;;;6.32;;
70270;SDS011;57680;54.292;18.598;2022-10-26T01:27:35;14.98;;;5.80;;
70270;SDS011;57680;54.292;18.598;2022-10-26T01:30:19;13.68;;;6.13;;
70270;SDS011;57680;54.292;18.598;2022-10-26T01:36:00;13.55;;;6.55;;
70270;SDS011;57680;54.292;18.598;2022-10-26T01:41:23;13.77;;;6.13;;
70270;SDS011;57680;54.292;18.598;2022-10-26T01:46:37;13.53;;;5.70;;
70270;SDS011;57680;54.292;18.598;2022-10-26T01:49:07;18.20;;;6.32;;
70270;SDS011;57680;54.292;18.598;2022-10-26T01:51:36;12.55;;;5.97;;
70270;SDS011;57680;54.292;18.598;2022-10-26T01:54:04;13.85;;;5.88;;
70270;SDS011;57680;54.292;18.598;2022-10-26T01:56:31;14.63;;;6.03;;
70270;SDS011;57680;54.292;18.598;2022-10-26T02:12:20;14.75;;;5.95;;
70270;SDS011;57680;54.292;18.598;2022-10-26T02:20:27;13.82;;;6.85;;
70270;SDS011;57680;54.292;18.598;2022-10-26T02:23:00;15.18;;;6.53;;
70270;SDS011;57680;54.292;18.598;2022-10-26T02:25:31;15.82;;;6.63;;
70270;SDS011;57680;54.292;18.598;2022-10-26T02:28:09;16.67;;;6.80;;
70270;SDS011;57680;54.292;18.598;2022-10-26T02:30:39;17.13;;;6.90;;
70270;SDS011;57680;54.292;18.598;2022-10-26T02:33:08;19.60;;;7.78;;
70270;SDS011;57680;54.292;18.598;2022-10-26T02:35:36;18.70;;;7.85;;
70270;SDS011;57680;54.292;18.598;2022-10-26T02:38:06;18.02;;;7.80;;
70270;SDS011;57680;54.292;18.598;2022-10-26T02:40:34;17.73;;;8.13;;
70270;SDS011;57680;54.292;18.598;2022-10-26T02:43:05;21.63;;;8.13;;
70270;SDS011;57680;54.292;18.598;2022-10-26T02:45:40;22.30;;;8.50;;
70270;SDS011;57680;54.292;18.598;2022-10-26T02:48:10;26.20;;;8.90;;
70270;SDS011;57680;54.292;18.598;2022-10-26T02:56:05;22.40;;;9.40;;
70270;SDS011;57680;54.292;18.598;2022-10-26T02:58:35;26.27;;;9.57;;
70270;SDS011;57680;54.292;18.598;2022-10-26T03:01:05;21.75;;;8.93;;
70270;SDS011;57680;54.292;18.598;2022-10-26T03:03:31;24.35;;;8.98;;
70270;SDS011;57680;54.292;18.598;2022-10-26T03:05:57;21.63;;;8.87;;
70270;SDS011;57680;54.292;18.598;2022-10-26T03:08:22;22.13;;;8.70;;
70270;SDS011;57680;54.292;18.598;2022-10-26T03:10:48;24.00;;;9.45;;
70270;SDS011;57680;54.292;18.598;2022-10-26T03:13:13;24.33;;;9.93;;
70270;SDS011;57680;54.292;18.598;2022-10-26T03:15:39;25.63;;;9.68;;
70270;SDS011;57680;54.292;18.598;2022-10-26T03:18:05;26.33;;;10.53;;
70270;SDS011;57680;54.292;18.598;2022-10-26T03:20:31;27.85;;;10.35;;
70270;SDS011;57680;54.292;18.598;2022-10-26T03:22:56;27.27;;;10.57;;
70270;SDS011;57680;54.292;18.598;2022-10-26T03:25:25;26.33;;;10.27;;
70270;SDS011;57680;54.292;18.598;2022-10-26T03:28:00;25.15;;;9.65;;
70270;SDS011;57680;54.292;18.598;2022-10-26T03:30:28;26.87;;;10.07;;
70270;SDS011;57680;54.292;18.598;2022-10-26T03:32:54;26.23;;;9.90;;
70270;SDS011;57680;54.292;18.598;2022-10-26T03:35:20;27.88;;;10.55;;
70270;SDS011;57680;54.292;18.598;2022-10-26T03:37:46;27.38;;;10.15;;
70270;SDS011;57680;54.292;18.598;2022-10-26T03:40:12;25.73;;;10.03;;
70270;SDS011;57680;54.292;18.598;2022-10-26T03:42:38;24.10;;;10.07;;
70270;SDS011;57680;54.292;18.598;2022-10-26T03:45:04;28.45;;;10.48;;
70270;SDS011;57680;54.292;18.598;2022-10-26T03:47:30;26.50;;;10.02;;
70270;SDS011;57680;54.292;18.598;2022-10-26T03:49:56;25.90;;;10.03;;
70270;SDS011;57680;54.292;18.598;2022-10-26T03:52:22;25.52;;;9.85;;
70270;SDS011;57680;54.292;18.598;2022-10-26T03:54:49;26.58;;;10.73;;
70270;SDS011;57680;54.292;18.598;2022-10-26T03:57:15;33.88;;;10.88;;
70270;SDS011;57680;54.292;18.598;2022-10-26T03:59:40;27.37;;;10.30;;
70270;SDS011;57680;54.292;18.598;2022-10-26T04:02:06;29.20;;;10.32;;
70270;SDS011;57680;54.292;18.598;2022-10-26T04:04:32;25.57;;;10.60;;
70270;SDS011;57680;54.292;18.598;2022-10-26T04:06:57;28.17;;;9.80;;
70270;SDS011;57680;54.292;18.598;2022-10-26T04:09:23;31.27;;;10.10;;
70270;SDS011;57680;54.292;18.598;2022-10-26T04:11:48;28.10;;;9.80;;
70270;SDS011;57680;54.292;18.598;2022-10-26T04:14:14;24.03;;;9.77;;
70270;SDS011;57680;54.292;18.598;2022-10-26T04:16:39;23.73;;;8.93;;
70270;SDS011;57680;54.292;18.598;2022-10-26T04:19:05;20.73;;;7.85;;
70270;SDS011;57680;54.292;18.598;2022-10-26T04:21:31;19.77;;;7.97;;
70270;SDS011;57680;54.292;18.598;2022-10-26T04:24:00;23.42;;;8.15;;
70270;SDS011;57680;54.292;18.598;2022-10-26T04:26:26;22.58;;;8.00;;
70270;SDS011;57680;54.292;18.598;2022-10-26T04:28:52;22.33;;;8.50;;
70270;SDS011;57680;54.292;18.598;2022-10-26T04:31:17;21.70;;;8.38;;
70270;SDS011;57680;54.292;18.598;2022-10-26T04:33:43;24.35;;;8.20;;
70270;SDS011;57680;54.292;18.598;2022-10-26T04:36:09;21.00;;;7.93;;
70270;SDS011;57680;54.292;18.598;2022-10-26T04:38:35;24.83;;;9.55;;
70270;SDS011;57680;54.292;18.598;2022-10-26T04:41:00;25.73;;;8.90;;
70270;SDS011;57680;54.292;18.598;2022-10-26T04:43:26;25.33;;;9.55;;
70270;SDS011;57680;54.292;18.598;2022-10-26T04:45:55;25.47;;;9.53;;
70270;SDS011;57680;54.292;18.598;2022-10-26T04:48:22;32.17;;;9.63;;
70270;SDS011;57680;54.292;18.598;2022-10-26T04:50:48;28.52;;;9.65;;
70270;SDS011;57680;54.292;18.598;2022-10-26T04:53:13;26.47;;;9.53;;
70270;SDS011;57680;54.292;18.598;2022-10-26T04:55:39;26.75;;;10.38;;
70270;SDS011;57680;54.292;18.598;2022-10-26T04:58:05;31.40;;;10.97;;
70270;SDS011;57680;54.292;18.598;2022-10-26T05:00:31;31.63;;;10.40;;
70270;SDS011;57680;54.292;18.598;2022-10-26T05:02:58;32.95;;;10.32;;
70270;SDS011;57680;54.292;18.598;2022-10-26T05:05:24;31.75;;;11.07;;
70270;SDS011;57680;54.292;18.598;2022-10-26T05:07:53;27.10;;;11.03;;
70270;SDS011;57680;54.292;18.598;2022-10-26T05:10:22;27.20;;;9.70;;
70270;SDS011;57680;54.292;18.598;2022-10-26T05:12:52;27.48;;;9.95;;
70270;SDS011;57680;54.292;18.598;2022-10-26T05:15:18;25.42;;;9.57;;
70270;SDS011;57680;54.292;18.598;2022-10-26T05:17:44;26.47;;;10.03;;
70270;SDS011;57680;54.292;18.598;2022-10-26T05:20:10;29.50;;;9.90;;
70270;SDS011;57680;54.292;18.598;2022-10-26T05:22:39;23.10;;;8.60;;
70270;SDS011;57680;54.292;18.598;2022-10-26T05:25:05;24.17;;;9.27;;
70270;SDS011;57680;54.292;18.598;2022-10-26T05:27:31;20.83;;;7.68;;
70270;SDS011;57680;54.292;18.598;2022-10-26T05:29:56;23.77;;;9.27;;
70270;SDS011;57680;54.292;18.598;2022-10-26T05:32:23;24.63;;;9.82;;
70270;SDS011;57680;54.292;18.598;2022-10-26T05:34:48;25.67;;;9.30;;
70270;SDS011;57680;54.292;18.598;2022-10-26T05:37:14;22.80;;;8.80;;
70270;SDS011;57680;54.292;18.598;2022-10-26T05:39:39;22.17;;;8.40;;
70270;SDS011;57680;54.292;18.598;2022-10-26T05:42:05;23.70;;;8.35;;
70270;SDS011;57680;54.292;18.598;2022-10-26T05:44:31;22.53;;;8.63;;
70270;SDS011;57680;54.292;18.598;2022-10-26T05:46:56;26.05;;;8.45;;
70270;SDS011;57680;54.292;18.598;2022-10-26T05:49:22;25.00;;;8.53;;
70270;SDS011;57680;54.292;18.598;2022-10-26T05:51:47;23.30;;;8.27;;
70270;SDS011;57680;54.292;18.598;2022-10-26T05:54:13;22.50;;;8.83;;
70270;SDS011;57680;54.292;18.598;2022-10-26T05:56:39;25.00;;;9.00;;
70270;SDS011;57680;54.292;18.598;2022-10-26T05:59:12;26.52;;;9.10;;
70270;SDS011;57680;54.292;18.598;2022-10-26T06:04:22;25.90;;;9.52;;
70270;SDS011;57680;54.292;18.598;2022-10-26T06:06:55;26.50;;;8.55;;
70270;SDS011;57680;54.292;18.598;2022-10-26T06:09:22;25.70;;;8.70;;
70270;SDS011;57680;54.292;18.598;2022-10-26T06:11:48;21.35;;;8.25;;
70270;SDS011;57680;54.292;18.598;2022-10-26T06:14:14;21.13;;;7.55;;
70270;SDS011;57680;54.292;18.598;2022-10-26T06:22:27;21.65;;;7.68;;
70270;SDS011;57680;54.292;18.598;2022-10-26T06:30:51;17.83;;;7.30;;
70270;SDS011;57680;54.292;18.598;2022-10-26T06:33:16;19.60;;;7.47;;
70270;SDS011;57680;54.292;18.598;2022-10-26T06:35:49;17.30;;;6.68;;
70270;SDS011;57680;54.292;18.598;2022-10-26T06:38:23;14.02;;;6.00;;
70270;SDS011;57680;54.292;18.598;2022-10-26T06:40:51;14.75;;;5.63;;
70270;SDS011;57680;54.292;18.598;2022-10-26T06:43:24;14.67;;;6.10;;
70270;SDS011;57680;54.292;18.598;2022-10-26T06:45:53;13.35;;;5.20;;
70270;SDS011;57680;54.292;18.598;2022-10-26T06:48:26;13.98;;;5.25;;
70270;SDS011;57680;54.292;18.598;2022-10-26T06:50:53;16.33;;;5.85;;
70270;SDS011;57680;54.292;18.598;2022-10-26T06:53:32;11.20;;;4.73;;
70270;SDS011;57680;54.292;18.598;2022-10-26T06:56:02;11.67;;;5.03;;
70270;SDS011;57680;54.292;18.598;2022-10-26T06:58:29;11.15;;;5.10;;
70270;SDS011;57680;54.292;18.598;2022-10-26T07:00:59;12.82;;;4.65;;
70270;SDS011;57680;54.292;18.598;2022-10-26T07:03:25;10.20;;;4.47;;
70270;SDS011;57680;54.292;18.598;2022-10-26T07:05:51;12.37;;;4.10;;
70270;SDS011;57680;54.292;18.598;2022-10-26T07:08:17;13.45;;;4.00;;
70270;SDS011;57680;54.292;18.598;2022-10-26T07:10:43;11.03;;;3.70;;
70270;SDS011;57680;54.292;18.598;2022-10-26T07:13:09;11.00;;;3.38;;
70270;SDS011;57680;54.292;18.598;2022-10-26T07:15:35;9.57;;;3.00;;
70270;SDS011;57680;54.292;18.598;2022-10-26T07:18:03;7.27;;;2.57;;
70270;SDS011;57680;54.292;18.598;2022-10-26T07:20:30;10.50;;;2.92;;
70270;SDS011;57680;54.292;18.598;2022-10-26T07:22:56;8.70;;;2.78;;
70270;SDS011;57680;54.292;18.598;2022-10-26T07:25:23;7.47;;;2.70;;
70270;SDS011;57680;54.292;18.598;2022-10-26T07:27:50;10.57;;;3.08;;
70270;SDS011;57680;54.292;18.598;2022-10-26T07:30:16;5.90;;;2.47;;
70270;SDS011;57680;54.292;18.598;2022-10-26T07:32:42;6.65;;;2.53;;
70270;SDS011;57680;54.292;18.598;2022-10-26T07:35:08;8.40;;;2.55;;
70270;SDS011;57680;54.292;18.598;2022-10-26T07:37:34;9.57;;;2.83;;
70270;SDS011;57680;54.292;18.598;2022-10-26T07:39:59;8.00;;;2.80;;
70270;SDS011;57680;54.292;18.598;2022-10-26T07:42:26;8.27;;;2.72;;
70270;SDS011;57680;54.292;18.598;2022-10-26T07:44:52;7.28;;;2.55;;
70270;SDS011;57680;54.292;18.598;2022-10-26T07:47:17;11.47;;;2.70;;
70270;SDS011;57680;54.292;18.598;2022-10-26T07:49:43;7.93;;;2.53;;
70270;SDS011;57680;54.292;18.598;2022-10-26T07:52:08;8.85;;;2.50;;
70270;SDS011;57680;54.292;18.598;2022-10-26T07:54:35;9.27;;;2.90;;
70270;SDS011;57680;54.292;18.598;2022-10-26T07:57:00;9.00;;;2.97;;
70270;SDS011;57680;54.292;18.598;2022-10-26T07:59:27;7.88;;;2.60;;
70270;SDS011;57680;54.292;18.598;2022-10-26T08:01:52;8.70;;;3.00;;
70270;SDS011;57680;54.292;18.598;2022-10-26T08:04:17;8.80;;;2.97;;
70270;SDS011;57680;54.292;18.598;2022-10-26T08:06:43;8.93;;;2.88;;
70270;SDS011;57680;54.292;18.598;2022-10-26T08:09:09;9.43;;;2.93;;
70270;SDS011;57680;54.292;18.598;2022-10-26T08:11:35;7.95;;;2.95;;
70270;SDS011;57680;54.292;18.598;2022-10-26T08:14:01;7.60;;;2.83;;
70270;SDS011;57680;54.292;18.598;2022-10-26T08:16:27;8.85;;;3.13;;
70270;SDS011;57680;54.292;18.598;2022-10-26T08:18:53;6.13;;;2.40;;
70270;SDS011;57680;54.292;18.598;2022-10-26T08:21:18;9.80;;;3.20;;
70270;SDS011;57680;54.292;18.598;2022-10-26T08:23:44;8.30;;;3.10;;
70270;SDS011;57680;54.292;18.598;2022-10-26T08:26:09;7.40;;;3.00;;
70270;SDS011;57680;54.292;18.598;2022-10-26T08:28:35;10.40;;;2.85;;
70270;SDS011;57680;54.292;18.598;2022-10-26T08:31:02;9.82;;;2.67;;
70270;SDS011;57680;54.292;18.598;2022-10-26T08:33:28;10.13;;;3.00;;
70270;SDS011;57680;54.292;18.598;2022-10-26T08:35:58;7.88;;;3.13;;
70270;SDS011;57680;54.292;18.598;2022-10-26T08:38:25;9.63;;;3.05;;
70270;SDS011;57680;54.292;18.598;2022-10-26T08:40:50;7.93;;;3.05;;
70270;SDS011;57680;54.292;18.598;2022-10-26T08:43:19;8.47;;;3.00;;
70270;SDS011;57680;54.292;18.598;2022-10-26T08:45:54;9.40;;;3.70;;
70270;SDS011;57680;54.292;18.598;2022-10-26T08:48:23;9.38;;;3.63;;
70270;SDS011;57680;54.292;18.598;2022-10-26T08:51:17;9.20;;;3.15;;
70270;SDS011;57680;54.292;18.598;2022-10-26T08:53:53;11.23;;;3.78;;
70270;SDS011;57680;54.292;18.598;2022-10-26T08:56:26;9.93;;;3.27;;
70270;SDS011;57680;54.292;18.598;2022-10-26T08:59:16;9.30;;;3.22;;
70270;SDS011;57680;54.292;18.598;2022-10-26T09:01:44;14.23;;;4.30;;
70270;SDS011;57680;54.292;18.598;2022-10-26T09:04:10;7.60;;;3.50;;
70270;SDS011;57680;54.292;18.598;2022-10-26T09:17:24;10.13;;;3.58;;
70270;SDS011;57680;54.292;18.598;2022-10-26T09:22:32;10.70;;;3.13;;
70270;SDS011;57680;54.292;18.598;2022-10-26T09:25:18;10.27;;;3.53;;
70270;SDS011;57680;54.292;18.598;2022-10-26T09:27:50;11.85;;;3.45;;
70270;SDS011;57680;54.292;18.598;2022-10-26T09:30:22;8.45;;;3.20;;
70270;SDS011;57680;54.292;18.598;2022-10-26T09:32:51;9.13;;;3.08;;
70270;SDS011;57680;54.292;18.598;2022-10-26T09:35:22;10.10;;;3.30;;
70270;SDS011;57680;54.292;18.598;2022-10-26T09:37:54;10.50;;;2.72;;
70270;SDS011;57680;54.292;18.598;2022-10-26T09:43:39;8.60;;;2.50;;
70270;SDS011;57680;54.292;18.598;2022-10-26T09:46:54;7.85;;;2.40;;
70270;SDS011;57680;54.292;18.598;2022-10-26T09:49:11;9.50;;;2.60;;
70270;SDS011;57680;54.292;18.598;2022-10-26T09:51:39;8.57;;;2.40;;
70270;SDS011;57680;54.292;18.598;2022-10-26T09:54:11;6.57;;;2.20;;
70270;SDS011;57680;54.292;18.598;2022-10-26T09:56:46;9.50;;;2.45;;
70270;SDS011;57680;54.292;18.598;2022-10-26T09:59:15;7.10;;;2.88;;
70270;SDS011;57680;54.292;18.598;2022-10-26T10:01:44;6.87;;;2.50;;
70270;SDS011;57680;54.292;18.598;2022-10-26T10:06:43;7.75;;;2.47;;
70270;SDS011;57680;54.292;18.598;2022-10-26T10:09:17;8.57;;;1.93;;
70270;SDS011;57680;54.292;18.598;2022-10-26T10:11:52;7.90;;;2.20;;
70270;SDS011;57680;54.292;18.598;2022-10-26T10:14:24;5.65;;;2.00;;
70270;SDS011;57680;54.292;18.598;2022-10-26T10:19:22;8.77;;;1.80;;
70270;SDS011;57680;54.292;18.598;2022-10-26T10:21:51;7.13;;;2.20;;
70270;SDS011;57680;54.292;18.598;2022-10-26T10:24:21;7.30;;;1.90;;
70270;SDS011;57680;54.292;18.598;2022-10-26T10:29:40;6.15;;;2.00;;
70270;SDS011;57680;54.292;18.598;2022-10-26T10:32:14;5.72;;;2.00;;
70270;SDS011;57680;54.292;18.598;2022-10-26T10:34:45;5.67;;;1.70;;
70270;SDS011;57680;54.292;18.598;2022-10-26T10:40:18;6.47;;;1.42;;
70270;SDS011;57680;54.292;18.598;2022-10-26T10:42:46;5.50;;;1.65;;
70270;SDS011;57680;54.292;18.598;2022-10-26T10:45:25;5.32;;;1.60;;
70270;SDS011;57680;54.292;18.598;2022-10-26T10:48:27;8.63;;;1.57;;
70270;SDS011;57680;54.292;18.598;2022-10-26T10:53:37;8.18;;;2.10;;
70270;SDS011;57680;54.292;18.598;2022-10-26T10:56:24;7.65;;;1.70;;
70270;SDS011;57680;54.292;18.598;2022-10-26T10:59:43;7.70;;;2.25;;
70270;SDS011;57680;54.292;18.598;2022-10-26T11:02:38;6.20;;;2.10;;
70270;SDS011;57680;54.292;18.598;2022-10-26T11:11:15;6.13;;;1.90;;
70270;SDS011;57680;54.292;18.598;2022-10-26T11:13:57;6.43;;;2.00;;
70270;SDS011;57680;54.292;18.598;2022-10-26T11:16:34;6.77;;;2.00;;
70270;SDS011;57680;54.292;18.598;2022-10-26T11:19:07;7.60;;;1.90;;
70270;SDS011;57680;54.292;18.598;2022-10-26T11:21:47;6.53;;;1.73;;
70270;SDS011;57680;54.292;18.598;2022-10-26T11:27:04;6.57;;;1.95;;
70270;SDS011;57680;54.292;18.598;2022-10-26T11:29:44;6.23;;;2.13;;
70270;SDS011;57680;54.292;18.598;2022-10-26T11:32:27;8.07;;;1.90;;
70270;SDS011;57680;54.292;18.598;2022-10-26T11:40:32;4.97;;;1.60;;
70270;SDS011;57680;54.292;18.598;2022-10-26T11:45:43;6.32;;;1.88;;
70270;SDS011;57680;54.292;18.598;2022-10-26T11:48:12;8.15;;;2.33;;
70270;SDS011;57680;54.292;18.598;2022-10-26T11:50:43;7.70;;;1.88;;
70270;SDS011;57680;54.292;18.598;2022-10-26T11:53:15;6.45;;;1.92;;
70270;SDS011;57680;54.292;18.598;2022-10-26T11:55:49;5.47;;;1.63;;
70270;SDS011;57680;54.292;18.598;2022-10-26T11:58:17;8.73;;;1.85;;
70270;SDS011;57680;54.292;18.598;2022-10-26T12:00:50;7.10;;;2.15;;
70270;SDS011;57680;54.292;18.598;2022-10-26T12:03:27;7.38;;;2.13;;
70270;SDS011;57680;54.292;18.598;2022-10-26T12:05:57;5.68;;;1.90;;
70270;SDS011;57680;54.292;18.598;2022-10-26T12:08:26;7.37;;;2.00;;
70270;SDS011;57680;54.292;18.598;2022-10-26T12:13:48;6.05;;;1.73;;
70270;SDS011;57680;54.292;18.598;2022-10-26T12:19:11;7.07;;;1.70;;
70270;SDS011;57680;54.292;18.598;2022-10-26T12:21:44;9.80;;;1.98;;
70270;SDS011;57680;54.292;18.598;2022-10-26T12:27:00;5.25;;;1.50;;
70270;SDS011;57680;54.292;18.598;2022-10-26T12:32:47;6.17;;;2.10;;
70270;SDS011;57680;54.292;18.598;2022-10-26T12:37:36;6.82;;;1.90;;
70270;SDS011;57680;54.292;18.598;2022-10-26T12:45:43;7.70;;;1.70;;
70270;SDS011;57680;54.292;18.598;2022-10-26T12:48:23;6.28;;;1.70;;
70270;SDS011;57680;54.292;18.598;2022-10-26T12:54:03;6.25;;;1.85;;
70270;SDS011;57680;54.292;18.598;2022-10-26T13:07:17;6.93;;;1.40;;
70270;SDS011;57680;54.292;18.598;2022-10-26T13:10:31;8.18;;;1.65;;
70270;SDS011;57680;54.292;18.598;2022-10-26T13:17:58;7.05;;;1.40;;
70270;SDS011;57680;54.292;18.598;2022-10-26T13:20:24;5.53;;;1.50;;
70270;SDS011;57680;54.292;18.598;2022-10-26T13:22:51;7.22;;;1.63;;
70270;SDS011;57680;54.292;18.598;2022-10-26T13:25:27;9.45;;;2.10;;
70270;SDS011;57680;54.292;18.598;2022-10-26T13:27:59;8.10;;;2.00;;
70270;SDS011;57680;54.292;18.598;2022-10-26T13:30:34;8.45;;;1.80;;
70270;SDS011;57680;54.292;18.598;2022-10-26T13:33:07;5.27;;;1.67;;
70270;SDS011;57680;54.292;18.598;2022-10-26T13:35:40;9.93;;;1.75;;
70270;SDS011;57680;54.292;18.598;2022-10-26T13:38:08;7.88;;;1.88;;
70270;SDS011;57680;54.292;18.598;2022-10-26T13:40:37;6.25;;;1.75;;
70270;SDS011;57680;54.292;18.598;2022-10-26T13:43:04;7.22;;;2.00;;
70270;SDS011;57680;54.292;18.598;2022-10-26T13:45:57;6.50;;;1.50;;
70270;SDS011;57680;54.292;18.598;2022-10-26T13:48:36;6.75;;;2.00;;
70270;SDS011;57680;54.292;18.598;2022-10-26T13:51:06;7.30;;;2.10;;
70270;SDS011;57680;54.292;18.598;2022-10-26T13:53:40;7.82;;;1.92;;
70270;SDS011;57680;54.292;18.598;2022-10-26T13:58:56;7.60;;;2.07;;
70270;SDS011;57680;54.292;18.598;2022-10-26T14:01:27;8.38;;;2.00;;
70270;SDS011;57680;54.292;18.598;2022-10-26T14:03:54;8.10;;;2.05;;
70270;SDS011;57680;54.292;18.598;2022-10-26T14:06:25;7.22;;;2.40;;
70270;SDS011;57680;54.292;18.598;2022-10-26T14:08:56;8.25;;;2.25;;
70270;SDS011;57680;54.292;18.598;2022-10-26T14:11:33;7.23;;;2.20;;
70270;SDS011;57680;54.292;18.598;2022-10-26T14:14:09;9.60;;;1.90;;
70270;SDS011;57680;54.292;18.598;2022-10-26T14:16:43;9.43;;;2.00;;
70270;SDS011;57680;54.292;18.598;2022-10-26T14:19:44;9.88;;;2.13;;
70270;SDS011;57680;54.292;18.598;2022-10-26T14:22:05;9.50;;;2.38;;
70270;SDS011;57680;54.292;18.598;2022-10-26T14:24:32;8.33;;;2.30;;
70270;SDS011;57680;54.292;18.598;2022-10-26T14:26:59;8.40;;;2.25;;
70270;SDS011;57680;54.292;18.598;2022-10-26T14:29:26;8.68;;;2.40;;
70270;SDS011;57680;54.292;18.598;2022-10-26T14:31:55;7.55;;;2.28;;
70270;SDS011;57680;54.292;18.598;2022-10-26T14:34:21;9.80;;;2.57;;
70270;SDS011;57680;54.292;18.598;2022-10-26T14:36:57;9.32;;;2.50;;
70270;SDS011;57680;54.292;18.598;2022-10-26T14:39:35;8.73;;;2.50;;
70270;SDS011;57680;54.292;18.598;2022-10-26T14:42:09;10.50;;;2.60;;
70270;SDS011;57680;54.292;18.598;2022-10-26T14:44:36;14.15;;;3.75;;
70270;SDS011;57680;54.292;18.598;2022-10-26T14:47:02;9.43;;;2.70;;
70270;SDS011;57680;54.292;18.598;2022-10-26T14:49:27;7.73;;;2.90;;
70270;SDS011;57680;54.292;18.598;2022-10-26T14:52:13;9.00;;;2.60;;
70270;SDS011;57680;54.292;18.598;2022-10-26T14:54:55;9.93;;;3.10;;
70270;SDS011;57680;54.292;18.598;2022-10-26T14:57:33;10.70;;;3.60;;
70270;SDS011;57680;54.292;18.598;2022-10-26T15:00:02;8.90;;;3.15;;
70270;SDS011;57680;54.292;18.598;2022-10-26T15:02:37;13.37;;;3.17;;
70270;SDS011;57680;54.292;18.598;2022-10-26T15:05:14;8.50;;;3.08;;
70270;SDS011;57680;54.292;18.598;2022-10-26T15:07:43;10.93;;;3.10;;
70270;SDS011;57680;54.292;18.598;2022-10-26T15:16:05;8.27;;;2.05;;
70270;SDS011;57680;54.292;18.598;2022-10-26T15:18:35;9.02;;;2.28;;
70270;SDS011;57680;54.292;18.598;2022-10-26T15:21:02;8.10;;;2.03;;
70270;SDS011;57680;54.292;18.598;2022-10-26T15:23:31;6.32;;;1.83;;
70270;SDS011;57680;54.292;18.598;2022-10-26T15:26:00;6.40;;;1.97;;
70270;SDS011;57680;54.292;18.598;2022-10-26T15:28:46;5.80;;;1.90;;
70270;SDS011;57680;54.292;18.598;2022-10-26T15:34:24;7.40;;;2.43;;
70270;SDS011;57680;54.292;18.598;2022-10-26T15:36:25;8.00;;;2.75;;
70270;SDS011;57680;54.292;18.598;2022-10-26T15:38:52;7.75;;;2.78;;
70270;SDS011;57680;54.292;18.598;2022-10-26T15:43:48;7.15;;;2.50;;
70270;SDS011;57680;54.292;18.598;2022-10-26T15:46:15;8.23;;;3.00;;
70270;SDS011;57680;54.292;18.598;2022-10-26T15:48:41;9.23;;;3.13;;
70270;SDS011;57680;54.292;18.598;2022-10-26T15:51:11;9.20;;;2.90;;
70270;SDS011;57680;54.292;18.598;2022-10-26T15:53:38;10.25;;;3.22;;
70270;SDS011;57680;54.292;18.598;2022-10-26T15:56:04;8.57;;;3.10;;
70270;SDS011;57680;54.292;18.598;2022-10-26T15:58:38;11.18;;;3.05;;
70270;SDS011;57680;54.292;18.598;2022-10-26T16:01:04;10.37;;;3.40;;
70270;SDS011;57680;54.292;18.598;2022-10-26T16:03:29;9.70;;;3.17;;
70270;SDS011;57680;54.292;18.598;2022-10-26T16:05:56;11.38;;;4.13;;
70270;SDS011;57680;54.292;18.598;2022-10-26T16:08:23;11.02;;;3.90;;
70270;SDS011;57680;54.292;18.598;2022-10-26T16:10:51;12.90;;;4.30;;
70270;SDS011;57680;54.292;18.598;2022-10-26T16:13:17;13.02;;;3.92;;
70270;SDS011;57680;54.292;18.598;2022-10-26T16:15:43;8.47;;;3.70;;
70270;SDS011;57680;54.292;18.598;2022-10-26T16:18:09;10.82;;;4.00;;
70270;SDS011;57680;54.292;18.598;2022-10-26T16:20:35;11.97;;;3.97;;
70270;SDS011;57680;54.292;18.598;2022-10-26T16:23:01;12.63;;;4.20;;
70270;SDS011;57680;54.292;18.598;2022-10-26T16:25:32;17.73;;;5.18;;
70270;SDS011;57680;54.292;18.598;2022-10-26T16:28:09;11.70;;;4.00;;
70270;SDS011;57680;54.292;18.598;2022-10-26T16:30:36;13.02;;;4.70;;
70270;SDS011;57680;54.292;18.598;2022-10-26T16:33:02;12.87;;;4.17;;
70270;SDS011;57680;54.292;18.598;2022-10-26T16:35:28;11.93;;;4.30;;
70270;SDS011;57680;54.292;18.598;2022-10-26T16:37:53;13.07;;;5.35;;
70270;SDS011;57680;54.292;18.598;2022-10-26T16:40:19;13.03;;;4.83;;
70270;SDS011;57680;54.292;18.598;2022-10-26T16:42:45;14.05;;;4.82;;
70270;SDS011;57680;54.292;18.598;2022-10-26T16:45:11;11.60;;;4.93;;
70270;SDS011;57680;54.292;18.598;2022-10-26T16:47:37;14.35;;;5.00;;
70270;SDS011;57680;54.292;18.598;2022-10-26T16:50:07;13.25;;;5.53;;
70270;SDS011;57680;54.292;18.598;2022-10-26T16:52:34;11.90;;;4.67;;
70270;SDS011;57680;54.292;18.598;2022-10-26T16:55:01;11.43;;;4.78;;
70270;SDS011;57680;54.292;18.598;2022-10-26T16:57:27;13.38;;;5.53;;
70270;SDS011;57680;54.292;18.598;2022-10-26T16:59:53;12.07;;;4.95;;
70270;SDS011;57680;54.292;18.598;2022-10-26T17:02:19;14.50;;;4.97;;
70270;SDS011;57680;54.292;18.598;2022-10-26T17:04:45;11.43;;;4.60;;
70270;SDS011;57680;54.292;18.598;2022-10-26T17:07:10;17.23;;;5.33;;
70270;SDS011;57680;54.292;18.598;2022-10-26T17:09:36;14.20;;;5.07;;
70270;SDS011;57680;54.292;18.598;2022-10-26T17:12:02;15.10;;;5.53;;
70270;SDS011;57680;54.292;18.598;2022-10-26T17:14:28;13.65;;;5.20;;